Time;durP1;ratioP1;P1;durP2;ratioP2;P2;SDS_P1;SDS_P2;PMS_P1;PMS_P2;Temp;Humidity;BMP_temperature;BMP_pressure;BME280_temperature;BME280_humidity;BME280_pressure;Samples;Min_cycle;Max_cycle;Signal;HPM_P1;HPM_P2
2023/12/19 00:01:48;;;;;;;15.02;5.97;;;;;;;6.52;92.19;101410.53;5105319;29;20036;-73
2023/12/19 00:04:19;;;;;;;14.32;6.80;;;;;;;6.50;91.89;101394.09;5098771;29;20287;-73
2023/12/19 00:06:49;;;;;;;13.82;6.53;;;;;;;6.60;91.12;101408.75;5100613;29;20046;-73
2023/12/19 00:09:21;;;;;;;15.48;5.90;;;;;;;6.63;91.55;101409.59;5104720;28;20040;-73
2023/12/19 00:11:51;;;;;;;15.68;6.63;;;;;;;6.57;92.03;101393.22;5104400;28;20259;-73
2023/12/19 00:14:22;;;;;;;12.07;5.95;;;;;;;6.58;92.12;101395.78;5095076;29;20099;-73
2023/12/19 00:16:52;;;;;;;14.68;6.55;;;;;;;6.54;92.05;101395.78;5104427;28;20043;-73
2023/12/19 00:19:22;;;;;;;12.77;6.07;;;;;;;6.57;92.30;101398.41;5104292;28;20031;-74
2023/12/19 00:21:52;;;;;;;14.27;6.57;;;;;;;6.75;92.07;101388.72;5104167;29;20043;-74
2023/12/19 00:24:23;;;;;;;12.77;6.50;;;;;;;6.71;92.11;101363.66;5098734;29;20394;-73
2023/12/19 00:26:53;;;;;;;14.65;6.18;;;;;;;6.81;91.92;101362.72;5104411;29;20067;-73
2023/12/19 00:29:23;;;;;;;15.80;6.70;;;;;;;6.75;92.80;101370.53;5106487;29;20042;-74
2023/12/19 00:31:54;;;;;;;13.60;6.18;;;;;;;6.67;93.34;101379.25;5102313;29;20038;-74
2023/12/19 00:34:24;;;;;;;15.63;6.63;;;;;;;6.73;92.32;101364.50;5107274;28;20044;-74
2023/12/19 00:36:54;;;;;;;15.80;7.10;;;;;;;6.77;93.27;101361.00;5103589;29;20024;-73
2023/12/19 00:39:24;;;;;;;14.02;6.18;;;;;;;6.81;92.77;101354.94;5105061;28;20074;-73
2023/12/19 00:41:55;;;;;;;15.68;6.80;;;;;;;6.93;92.34;101346.16;5103976;29;20464;-73
2023/12/19 00:44:25;;;;;;;16.77;7.82;;;;;;;6.92;93.19;101354.84;5097582;28;20031;-74
2023/12/19 00:46:55;;;;;;;12.60;6.35;;;;;;;6.90;93.96;101372.19;5096689;29;20035;-73
2023/12/19 00:49:25;;;;;;;13.30;6.30;;;;;;;6.84;94.41;101380.00;5095064;28;20036;-73
2023/12/19 00:51:56;;;;;;;12.57;5.85;;;;;;;6.83;94.69;101412.94;5102626;29;20027;-73
2023/12/19 00:54:26;;;;;;;13.30;6.78;;;;;;;6.81;94.98;101401.69;5102366;29;20042;-73
2023/12/19 00:56:57;;;;;;;11.68;6.13;;;;;;;6.95;95.05;101397.22;5089174;29;20025;-73
2023/12/19 00:59:27;;;;;;;11.85;6.10;;;;;;;6.85;94.55;101397.31;5103983;29;20075;-74
2023/12/19 01:01:57;;;;;;;12.38;6.18;;;;;;;6.78;95.09;101393.06;5103115;29;20345;-73
2023/12/19 01:04:27;;;;;;;13.57;6.63;;;;;;;6.85;95.16;101376.53;5106413;28;20051;-74
2023/12/19 01:06:58;;;;;;;12.00;6.00;;;;;;;6.77;95.47;101374.00;5101275;29;20039;-73
2023/12/19 01:09:28;;;;;;;12.30;5.75;;;;;;;6.80;95.06;101378.31;5104047;28;20459;-73
2023/12/19 01:11:59;;;;;;;11.77;6.28;;;;;;;6.82;95.17;101382.63;5101419;29;20076;-73
2023/12/19 01:14:29;;;;;;;12.55;6.40;;;;;;;6.83;95.24;101379.16;5090927;28;20113;-73
2023/12/19 01:16:59;;;;;;;12.05;6.20;;;;;;;6.91;95.22;101384.31;5102645;29;20023;-73
2023/12/19 01:19:30;;;;;;;10.80;6.07;;;;;;;6.86;95.25;101406.84;5105883;29;20066;-74
2023/12/19 01:22:00;;;;;;;16.42;6.63;;;;;;;6.90;95.57;101405.97;5106478;28;20031;-73
2023/12/19 01:24:30;;;;;;;11.10;6.28;;;;;;;6.83;95.74;101407.75;5106443;29;20027;-73
2023/12/19 01:27:01;;;;;;;10.52;6.07;;;;;;;6.84;96.56;101400.78;5108300;29;20039;-73
2023/12/19 01:29:31;;;;;;;14.43;6.53;;;;;;;6.91;97.00;101407.69;5096111;28;20087;-73
2023/12/19 01:32:01;;;;;;;10.98;6.00;;;;;;;6.85;97.37;101411.19;5101844;29;20031;-73
2023/12/19 01:34:31;;;;;;;12.80;6.38;;;;;;;6.93;97.67;101418.94;5098280;29;20031;-73
2023/12/19 01:37:02;;;;;;;11.45;6.32;;;;;;;6.94;97.97;101407.66;5109868;29;20053;-75
2023/12/19 01:39:32;;;;;;;12.65;6.78;;;;;;;6.77;98.60;101407.75;5110836;28;20130;-74
2023/12/19 01:42:02;;;;;;;12.95;6.80;;;;;;;6.74;98.93;101407.78;5092961;28;20574;-74
2023/12/19 01:44:33;;;;;;;12.75;6.75;;;;;;;6.78;99.02;101406.03;5109094;29;20039;-73
2023/12/19 01:47:03;;;;;;;13.10;6.75;;;;;;;6.74;99.58;101415.59;5111331;29;20039;-73
2023/12/19 01:49:33;;;;;;;14.07;7.13;;;;;;;6.69;100.00;101408.69;5107334;29;20489;-73
2023/12/19 01:52:04;;;;;;;12.70;7.18;;;;;;;6.70;100.00;101406.09;5101888;29;20044;-74
2023/12/19 01:54:37;;;;;;;13.65;7.43;;;;;;;6.66;100.00;101398.31;5103418;29;20024;-74
2023/12/19 01:57:08;;;;;;;13.73;7.30;;;;;;;6.74;100.00;101391.34;5106889;29;20406;-74
2023/12/19 01:59:38;;;;;;;13.48;7.45;;;;;;;6.69;100.00;101383.59;5108187;29;20023;-74
2023/12/19 02:02:08;;;;;;;14.23;7.53;;;;;;;6.78;100.00;101391.31;5084559;29;20042;-74
2023/12/19 02:04:39;;;;;;;13.35;7.25;;;;;;;6.75;100.00;101390.47;5097433;29;20032;-73
2023/12/19 02:07:09;;;;;;;15.15;6.90;;;;;;;6.72;100.00;101385.28;5110960;28;20055;-74
2023/12/19 02:09:39;;;;;;;15.20;7.97;;;;;;;6.81;100.00;101378.31;5110134;28;20031;-74
2023/12/19 02:12:10;;;;;;;14.73;8.13;;;;;;;6.75;99.85;101356.72;5090876;28;20226;-74
2023/12/19 02:14:44;;;;;;;15.45;7.65;;;;;;;6.70;100.00;101355.88;5097154;29;20024;-74
2023/12/19 02:17:16;;;;;;;15.82;7.80;;;;;;;6.70;100.00;101348.06;5103121;28;20110;-72
2023/12/19 02:19:49;;;;;;;13.23;7.57;;;;;;;6.64;100.00;101338.63;5105249;29;20058;-74
2023/12/19 02:22:20;;;;;;;14.65;7.78;;;;;;;6.62;100.00;101331.69;5106633;29;20051;-74
2023/12/19 02:24:50;;;;;;;15.50;8.15;;;;;;;6.58;100.00;101327.41;5105296;28;20469;-73
2023/12/19 02:27:23;;;;;;;16.17;7.43;;;;;;;6.61;100.00;101328.22;5104873;28;20027;-74
2023/12/19 02:29:54;;;;;;;16.23;8.02;;;;;;;6.64;100.00;101327.34;5095964;28;20085;-72
2023/12/19 02:32:24;;;;;;;16.90;8.57;;;;;;;6.75;100.00;101326.38;5094415;29;20023;-74
2023/12/19 02:34:54;;;;;;;16.88;8.57;;;;;;;6.71;100.00;101322.09;5097750;29;20118;-74
2023/12/19 02:37:24;;;;;;;18.48;8.70;;;;;;;6.71;100.00;101321.22;5093716;28;20039;-74
2023/12/19 02:39:55;;;;;;;18.48;8.38;;;;;;;6.71;100.00;101310.84;5098746;29;20062;-74
2023/12/19 02:42:25;;;;;;;15.60;8.18;;;;;;;6.79;100.00;101311.66;5087834;29;20035;-74
2023/12/19 02:44:55;;;;;;;16.20;8.23;;;;;;;6.74;100.00;101308.25;5100550;29;20074;-73
2023/12/19 02:47:25;;;;;;;14.93;8.02;;;;;;;6.73;100.00;101312.56;5092515;29;20078;-73
2023/12/19 02:49:56;;;;;;;14.82;7.75;;;;;;;6.80;100.00;101313.38;5100474;29;20031;-73
2023/12/19 02:52:26;;;;;;;14.93;7.82;;;;;;;6.78;100.00;101315.13;5098428;29;20027;-73
2023/12/19 02:54:56;;;;;;;15.95;7.75;;;;;;;6.75;100.00;101310.81;5095279;29;20489;-74
2023/12/19 02:57:27;;;;;;;13.90;7.53;;;;;;;6.75;100.00;101309.97;5105335;29;20492;-73
2023/12/19 02:59:57;;;;;;;14.52;7.30;;;;;;;6.81;100.00;101315.09;5106015;29;20043;-74
2023/12/19 03:02:27;;;;;;;12.52;7.05;;;;;;;6.79;100.00;101290.88;5097807;28;20063;-73
2023/12/19 03:04:58;;;;;;;15.57;7.05;;;;;;;6.87;100.00;101284.72;5099741;29;20027;-73
2023/12/19 03:07:28;;;;;;;16.98;7.25;;;;;;;6.87;100.00;101276.06;5099061;28;20452;-74
2023/12/19 03:09:58;;;;;;;18.45;7.30;;;;;;;6.90;100.00;101270.84;5104903;29;20039;-73
2023/12/19 03:12:28;;;;;;;15.70;7.05;;;;;;;6.98;100.00;101271.63;5093091;28;20173;-74
2023/12/19 03:14:59;;;;;;;12.40;6.75;;;;;;;6.80;100.00;101271.81;5100825;29;20532;-74
2023/12/19 03:17:29;;;;;;;13.68;6.63;;;;;;;6.86;100.00;101274.34;5104035;28;20078;-74
2023/12/19 03:19:59;;;;;;;13.65;7.60;;;;;;;6.85;100.00;101272.63;5096548;28;20031;-74
2023/12/19 03:22:29;;;;;;;14.70;7.18;;;;;;;7.00;100.00;101256.88;5097254;28;20409;-74
2023/12/19 03:25:00;;;;;;;12.90;6.43;;;;;;;6.98;100.00;101262.13;5103335;29;20151;-74
2023/12/19 03:27:30;;;;;;;11.95;6.75;;;;;;;7.00;100.00;101260.34;5094556;28;20039;-74
2023/12/19 03:30:00;;;;;;;11.15;6.65;;;;;;;6.85;100.00;101249.25;5104214;29;20094;-74
2023/12/19 03:32:31;;;;;;;13.57;6.70;;;;;;;6.86;100.00;101245.75;5086391;28;20527;-74
2023/12/19 03:35:01;;;;;;;15.90;7.70;;;;;;;6.89;100.00;101243.13;5095993;29;20043;-74
2023/12/19 03:37:31;;;;;;;12.77;6.78;;;;;;;6.95;100.00;101250.88;5095761;29;20712;-74
2023/12/19 03:40:02;;;;;;;12.70;7.25;;;;;;;6.90;100.00;101242.28;5104127;29;20288;-74
2023/12/19 03:42:33;;;;;;;13.73;7.13;;;;;;;6.94;100.00;101229.22;5101580;28;20523;-74
2023/12/19 03:45:04;;;;;;;13.20;6.80;;;;;;;6.96;100.00;101231.81;5089289;29;20606;-74
2023/12/19 03:47:35;;;;;;;17.35;7.60;;;;;;;6.93;100.00;101226.66;5090321;29;20045;-74
2023/12/19 03:50:07;;;;;;;14.18;7.40;;;;;;;6.93;100.00;101232.69;5104366;29;20024;-74
2023/12/19 03:52:37;;;;;;;14.73;7.82;;;;;;;6.96;100.00;101242.22;5097218;28;20521;-74
2023/12/19 03:55:08;;;;;;;14.85;7.25;;;;;;;6.91;100.00;101249.19;5105591;29;20059;-74
2023/12/19 03:57:38;;;;;;;17.83;7.22;;;;;;;6.98;100.00;101243.94;5090039;29;20031;-74
2023/12/19 04:00:09;;;;;;;14.38;6.93;;;;;;;7.03;100.00;101251.66;5099165;29;20149;-74
2023/12/19 04:02:39;;;;;;;16.75;6.88;;;;;;;6.94;100.00;101249.16;5094444;29;20023;-73
2023/12/19 04:05:10;;;;;;;14.35;6.78;;;;;;;6.95;100.00;101250.88;5093999;29;20031;-74
2023/12/19 04:07:40;;;;;;;12.98;6.90;;;;;;;7.03;100.00;101233.47;5103493;28;20118;-73
2023/12/19 04:10:10;;;;;;;12.40;6.22;;;;;;;7.04;100.00;101241.25;5100827;28;20031;-74
2023/12/19 04:12:41;;;;;;;13.35;7.18;;;;;;;7.02;100.00;101242.13;5099846;29;20038;-74
2023/12/19 04:15:11;;;;;;;15.95;6.90;;;;;;;7.01;100.00;101235.22;5095010;28;20500;-74
2023/12/19 04:17:41;;;;;;;13.07;6.93;;;;;;;7.03;100.00;101226.53;5095589;28;20043;-74
2023/12/19 04:20:12;;;;;;;14.73;6.70;;;;;;;6.91;100.00;101218.03;5102469;29;20055;-74
2023/12/19 04:22:42;;;;;;;15.55;6.85;;;;;;;7.05;100.00;101213.50;5094845;28;20036;-73
2023/12/19 04:25:13;;;;;;;12.40;6.47;;;;;;;6.96;100.00;101213.63;5091606;28;20030;-74
2023/12/19 04:27:43;;;;;;;13.32;6.68;;;;;;;6.94;100.00;101203.25;5086359;28;20031;-73
2023/12/19 04:30:13;;;;;;;12.30;7.18;;;;;;;6.95;100.00;101211.91;5097418;28;20027;-74
2023/12/19 04:32:44;;;;;;;15.52;7.07;;;;;;;6.98;100.00;101198.88;5101217;29;20488;-74
2023/12/19 04:35:14;;;;;;;16.88;7.80;;;;;;;6.93;100.00;101190.28;5102172;29;20027;-74
2023/12/19 04:37:45;;;;;;;13.30;6.38;;;;;;;7.09;100.00;101166.69;5100827;29;20024;-74
2023/12/19 04:40:15;;;;;;;13.38;6.47;;;;;;;6.99;100.00;101178.09;5103951;29;20031;-75
2023/12/19 04:42:45;;;;;;;12.63;5.97;;;;;;;6.99;100.00;101175.50;5101847;28;20031;-74
2023/12/19 04:45:16;;;;;;;10.95;6.18;;;;;;;7.04;100.00;101180.59;5105060;28;20322;-74
2023/12/19 04:47:46;;;;;;;12.40;6.50;;;;;;;7.05;100.00;101179.72;5107726;29;20033;-74
2023/12/19 04:50:16;;;;;;;11.13;6.38;;;;;;;7.08;100.00;101158.94;5094446;28;20508;-74
2023/12/19 04:52:47;;;;;;;9.82;5.90;;;;;;;7.04;100.00;101159.81;5094618;29;20039;-74
2023/12/19 04:55:17;;;;;;;12.07;6.22;;;;;;;7.02;100.00;101158.97;5105282;28;20023;-74
2023/12/19 04:57:47;;;;;;;11.40;6.28;;;;;;;7.09;100.00;101156.28;5103280;28;20079;-74
2023/12/19 05:00:18;;;;;;;12.63;6.65;;;;;;;7.02;100.00;101151.19;5109176;28;20506;-74
2023/12/19 05:02:48;;;;;;;12.93;5.95;;;;;;;7.00;100.00;101150.34;5092132;29;20034;-75
2023/12/19 05:05:19;;;;;;;10.75;5.95;;;;;;;6.91;100.00;101160.88;5101562;28;20032;-74
2023/12/19 05:07:50;;;;;;;14.40;6.80;;;;;;;6.92;100.00;101157.38;5106490;29;20732;-74
2023/12/19 05:10:20;;;;;;;11.40;6.20;;;;;;;6.87;100.00;101165.22;5111966;29;20118;-74
2023/12/19 05:12:50;;;;;;;11.80;5.50;;;;;;;7.00;100.00;101152.94;5088655;28;20031;-73
2023/12/19 05:15:21;;;;;;;10.88;5.53;;;;;;;6.91;100.00;101156.50;5104537;28;20489;-75
2023/12/19 05:17:51;;;;;;;10.63;5.63;;;;;;;7.03;100.00;101155.50;5105226;28;20031;-75
2023/12/19 05:20:22;;;;;;;8.18;5.22;;;;;;;7.07;100.00;101144.22;5111634;29;20489;-74
2023/12/19 05:22:52;;;;;;;9.07;5.35;;;;;;;7.08;100.00;101141.56;5107611;29;20115;-74
2023/12/19 05:25:22;;;;;;;10.25;5.50;;;;;;;7.04;100.00;101134.72;5109419;28;20023;-74
2023/12/19 05:27:53;;;;;;;9.52;5.18;;;;;;;7.05;100.00;101138.16;5099314;29;20719;-74
2023/12/19 05:30:23;;;;;;;9.98;5.65;;;;;;;6.97;100.00;101145.19;5105456;28;20024;-74
2023/12/19 05:32:53;;;;;;;10.60;5.82;;;;;;;6.97;100.00;101150.38;5114667;28;20036;-74
2023/12/19 05:35:23;;;;;;;11.10;5.93;;;;;;;6.97;100.00;101140.00;5101253;28;20214;-74
2023/12/19 05:37:54;;;;;;;10.85;5.88;;;;;;;7.03;100.00;101140.78;5108427;29;20026;-74
2023/12/19 05:40:24;;;;;;;10.52;5.65;;;;;;;7.03;100.00;101139.91;5111019;28;20081;-75
2023/12/19 05:42:57;;;;;;;9.48;5.30;;;;;;;7.05;100.00;101144.22;5106645;29;20035;-74
2023/12/19 05:45:28;;;;;;;11.10;5.60;;;;;;;7.07;100.00;101136.41;5105348;29;20043;-74
2023/12/19 05:47:58;;;;;;;10.63;5.35;;;;;;;7.15;100.00;101142.38;5106976;29;20028;-74
2023/12/19 05:50:28;;;;;;;9.80;5.60;;;;;;;7.14;100.00;101151.03;5108532;28;20039;-74
2023/12/19 05:52:59;;;;;;;11.23;5.57;;;;;;;7.09;100.00;101139.84;5105851;29;20195;-74
2023/12/19 05:55:29;;;;;;;11.60;5.20;;;;;;;7.15;100.00;101134.56;5093666;29;20535;-74
2023/12/19 05:57:59;;;;;;;10.40;4.85;;;;;;;7.07;100.00;101126.03;5100353;29;20023;-74
2023/12/19 06:00:30;;;;;;;10.45;4.90;;;;;;;7.09;100.00;101113.88;5096667;29;20401;-74
2023/12/19 06:03:01;;;;;;;10.23;5.13;;;;;;;7.00;100.00;101098.38;5104438;28;20501;-74
2023/12/19 06:05:31;;;;;;;8.48;4.93;;;;;;;7.05;100.00;101087.06;5105524;29;20502;-73
2023/12/19 06:08:02;;;;;;;8.52;4.40;;;;;;;7.12;100.00;101072.25;5103221;29;20225;-74
2023/12/19 06:10:33;;;;;;;8.70;4.88;;;;;;;7.06;100.00;101069.69;5093649;29;20577;-74
2023/12/19 06:13:05;;;;;;;9.02;4.90;;;;;;;7.09;100.00;101059.28;5100919;29;20035;-75
2023/12/19 06:15:35;;;;;;;9.23;5.10;;;;;;;7.07;100.00;101058.47;5101810;29;20063;-75
2023/12/19 06:18:05;;;;;;;9.35;4.97;;;;;;;7.10;100.00;101053.22;5106401;29;20110;-74
2023/12/19 06:20:35;;;;;;;8.23;4.68;;;;;;;6.92;100.00;101067.31;5104357;29;20027;-74
2023/12/19 06:23:06;;;;;;;10.82;5.30;;;;;;;6.99;100.00;101065.47;5111877;29;20039;-74
2023/12/19 06:25:38;;;;;;;9.63;5.35;;;;;;;6.98;100.00;101061.16;5113216;28;20409;-75
2023/12/19 06:28:08;;;;;;;7.93;4.88;;;;;;;6.99;100.00;101060.28;5113543;29;20035;-74
2023/12/19 06:30:38;;;;;;;8.60;4.60;;;;;;;7.04;100.00;101053.28;5109114;29;20054;-74
2023/12/19 06:33:09;;;;;;;8.50;5.00;;;;;;;6.98;100.00;101071.56;5114589;29;20042;-74
2023/12/19 06:35:41;;;;;;;7.35;4.32;;;;;;;7.03;100.00;101081.03;5103955;29;20049;-74
2023/12/19 06:38:11;;;;;;;8.07;5.00;;;;;;;6.98;100.00;101072.44;5108671;28;20020;-74
2023/12/19 06:40:41;;;;;;;9.65;5.43;;;;;;;7.13;100.00;101058.38;5108364;29;20412;-75
2023/12/19 06:43:11;;;;;;;10.25;5.30;;;;;;;7.05;100.00;101060.19;5108399;28;20027;-74
2023/12/19 06:45:42;;;;;;;9.98;5.00;;;;;;;7.03;100.00;101061.97;5104709;29;20163;-73
2023/12/19 06:48:12;;;;;;;7.55;4.70;;;;;;;7.12;100.00;101061.84;5109451;29;20042;-74
2023/12/19 06:50:42;;;;;;;9.13;5.30;;;;;;;7.02;100.00;101068.03;5098282;29;20043;-74
2023/12/19 06:53:13;;;;;;;9.20;4.88;;;;;;;7.06;100.00;101061.91;5099990;28;20027;-74
2023/12/19 06:55:43;;;;;;;10.75;4.85;;;;;;;7.07;100.00;101051.50;5101150;29;20126;-74
2023/12/19 06:58:14;;;;;;;9.05;4.68;;;;;;;7.15;100.00;101048.81;5101216;28;20377;-76
2023/12/19 07:00:44;;;;;;;7.75;4.72;;;;;;;7.14;100.00;101042.72;5096683;29;20326;-75
2023/12/19 07:03:15;;;;;;;10.80;5.07;;;;;;;7.22;100.00;101039.13;5093389;28;20443;-74
2023/12/19 07:05:45;;;;;;;9.77;5.18;;;;;;;7.17;100.00;101040.13;5091735;29;20099;-75
2023/12/19 07:08:15;;;;;;;8.02;4.93;;;;;;;7.25;100.00;101037.41;5096171;28;20043;-74
2023/12/19 07:10:45;;;;;;;9.38;4.90;;;;;;;7.13;100.00;101032.38;5096694;29;20041;-74
2023/12/19 07:13:16;;;;;;;9.65;4.72;;;;;;;7.29;100.00;101030.38;5106330;29;20034;-74
2023/12/19 07:15:46;;;;;;;8.65;4.80;;;;;;;7.31;100.00;101038.16;5113958;29;20027;-73
2023/12/19 07:18:16;;;;;;;9.82;4.75;;;;;;;7.29;100.00;101040.78;5099035;29;20156;-74
2023/12/19 07:20:47;;;;;;;10.35;5.20;;;;;;;7.22;100.00;101040.03;5103329;28;20400;-74
2023/12/19 07:23:17;;;;;;;9.00;5.10;;;;;;;7.30;100.00;101039.03;5102390;29;20036;-74
2023/12/19 07:25:47;;;;;;;10.18;5.03;;;;;;;7.34;100.00;101038.97;5093056;29;20122;-74
2023/12/19 07:28:17;;;;;;;13.70;5.55;;;;;;;7.18;100.00;101043.56;5093631;29;20035;-73
2023/12/19 07:30:48;;;;;;;13.20;5.75;;;;;;;7.15;100.00;101046.19;5094512;29;20385;-74
2023/12/19 07:33:18;;;;;;;13.75;5.10;;;;;;;7.24;100.00;101046.94;5106109;29;20035;-74
2023/12/19 07:35:48;;;;;;;11.80;5.72;;;;;;;7.28;100.00;101047.75;5103019;28;20126;-74
2023/12/19 07:38:19;;;;;;;12.27;6.03;;;;;;;7.39;100.00;101050.16;5098010;29;20062;-74
2023/12/19 07:40:49;;;;;;;13.02;5.80;;;;;;;7.29;100.00;101051.19;5099593;29;20057;-74
2023/12/19 07:43:19;;;;;;;10.40;5.60;;;;;;;7.31;100.00;101048.53;5093057;29;20055;-74
2023/12/19 07:45:49;;;;;;;10.05;5.70;;;;;;;7.26;100.00;101050.34;5094167;28;20114;-74
2023/12/19 07:48:20;;;;;;;15.52;6.97;;;;;;;7.30;100.00;101052.91;5094149;29;20429;-74
2023/12/19 07:50:50;;;;;;;13.82;6.65;;;;;;;7.36;100.00;101058.00;5098568;28;20051;-73
2023/12/19 07:53:20;;;;;;;13.25;6.50;;;;;;;7.38;100.00;101043.22;5097707;29;20035;-74
2023/12/19 07:55:51;;;;;;;13.25;6.53;;;;;;;7.26;100.00;101050.34;5097696;29;20544;-74
2023/12/19 07:58:21;;;;;;;13.00;6.63;;;;;;;7.32;100.00;101045.09;5103901;29;20035;-74
2023/12/19 08:00:51;;;;;;;10.95;6.05;;;;;;;7.24;100.00;101043.50;5103305;28;20050;-74
2023/12/19 08:03:29;;;;;;;12.30;6.32;;;;;;;7.22;100.00;101042.63;5095843;29;20445;-74
2023/12/19 08:05:59;;;;;;;12.27;6.13;;;;;;;7.29;100.00;101037.31;5095803;29;20039;-74
2023/12/19 08:08:30;;;;;;;9.98;5.70;;;;;;;7.24;100.00;101035.69;5103141;29;20027;-74
2023/12/19 08:11:00;;;;;;;11.07;6.22;;;;;;;7.28;100.00;101027.81;5099023;28;20236;-74
2023/12/19 08:13:30;;;;;;;11.25;6.10;;;;;;;7.29;100.00;101027.78;5100281;29;20432;-74
2023/12/19 08:16:01;;;;;;;10.40;5.60;;;;;;;7.19;100.00;101017.56;5098360;28;20041;-74
2023/12/19 08:18:32;;;;;;;15.60;7.20;;;;;;;7.31;100.00;101013.03;5100250;29;20392;-74
2023/12/19 08:21:03;;;;;;;12.15;6.32;;;;;;;7.28;100.00;101012.19;5102245;28;20039;-74
2023/12/19 08:23:33;;;;;;;9.50;5.95;;;;;;;7.30;100.00;101007.84;5093479;29;20039;-74
2023/12/19 08:26:08;;;;;;;10.15;5.90;;;;;;;7.30;100.00;101002.63;5100309;29;20035;-74
2023/12/19 08:28:39;;;;;;;11.98;5.78;;;;;;;7.35;100.00;101008.63;5104462;29;21338;-74
2023/12/19 08:31:09;;;;;;;13.95;6.95;;;;;;;7.34;100.00;101001.72;5099079;29;20031;-73
2023/12/19 08:33:43;;;;;;;12.73;7.18;;;;;;;7.29;100.00;100994.00;5102412;28;20031;-74
2023/12/19 08:36:13;;;;;;;13.63;7.03;;;;;;;7.29;100.00;100978.41;5101860;29;20034;-74
2023/12/19 08:38:45;;;;;;;11.57;6.93;;;;;;;7.33;100.00;100969.66;5085599;29;20039;-74
2023/12/19 08:41:15;;;;;;;18.02;8.20;;;;;;;7.39;100.00;100964.34;5100315;29;20039;-74
2023/12/19 08:43:46;;;;;;;13.15;6.95;;;;;;;7.42;100.00;100964.31;5102083;29;20027;-74
2023/12/19 08:46:19;;;;;;;11.45;6.32;;;;;;;7.43;100.00;100950.44;5101464;28;20042;-74
2023/12/19 08:48:52;;;;;;;13.40;6.20;;;;;;;7.43;100.00;100950.44;5104607;28;20023;-73
2023/12/19 08:51:23;;;;;;;11.77;5.28;;;;;;;7.43;100.00;100955.63;5107585;29;20039;-74
2023/12/19 08:53:53;;;;;;;9.07;5.13;;;;;;;7.40;100.00;100953.09;5105214;29;20043;-74
2023/12/19 08:56:23;;;;;;;8.88;5.20;;;;;;;7.47;100.00;100949.50;5103077;28;20020;-74
2023/12/19 08:58:53;;;;;;;8.93;5.50;;;;;;;7.42;100.00;100951.31;5102113;29;20647;-74
2023/12/19 09:01:24;;;;;;;11.15;5.63;;;;;;;7.47;100.00;100944.28;5109531;29;20031;-74
2023/12/19 09:03:54;;;;;;;8.05;4.93;;;;;;;7.50;100.00;100946.00;5104345;28;20078;-74
2023/12/19 09:06:24;;;;;;;7.68;4.75;;;;;;;7.56;100.00;100945.88;5101237;29;20035;-74
2023/12/19 09:08:55;;;;;;;9.35;4.93;;;;;;;7.51;100.00;100937.31;5101860;28;20243;-74
2023/12/19 09:11:25;;;;;;;9.07;4.90;;;;;;;7.55;100.00;100945.00;5099743;29;20028;-74
2023/12/19 09:13:55;;;;;;;9.63;5.05;;;;;;;7.60;100.00;100930.19;5104259;28;20093;-73
2023/12/19 09:16:25;;;;;;;9.60;4.78;;;;;;;7.62;100.00;100928.44;5106154;29;20027;-74
2023/12/19 09:18:56;;;;;;;8.25;4.70;;;;;;;7.67;100.00;100921.38;5103600;28;20488;-73
2023/12/19 09:21:26;;;;;;;6.88;3.97;;;;;;;7.66;100.00;100917.06;5104905;29;20128;-74
2023/12/19 09:23:56;;;;;;;6.97;3.88;;;;;;;7.80;100.00;100916.81;5103414;29;20039;-74
2023/12/19 09:26:27;;;;;;;7.90;4.75;;;;;;;7.74;100.00;100919.53;5099930;29;20078;-74
2023/12/19 09:28:58;;;;;;;8.02;4.30;;;;;;;7.77;100.00;100914.25;5102861;29;20045;-74
2023/12/19 09:31:28;;;;;;;6.47;3.92;;;;;;;7.76;100.00;100918.63;5101565;29;20036;-74
2023/12/19 09:33:58;;;;;;;10.50;4.22;;;;;;;7.78;100.00;100911.66;5106218;28;20496;-74
2023/12/19 09:36:28;;;;;;;8.75;4.32;;;;;;;7.77;100.00;100909.06;5100814;28;20102;-74
2023/12/19 09:38:59;;;;;;;8.70;4.35;;;;;;;7.76;100.00;100900.41;5105228;29;20035;-74
2023/12/19 09:41:31;;;;;;;7.93;4.25;;;;;;;7.70;100.00;100897.06;5103070;29;20102;-74
2023/12/19 09:44:02;;;;;;;8.18;4.45;;;;;;;7.71;100.00;100897.03;5107223;29;20019;-74
2023/12/19 09:46:33;;;;;;;7.93;4.25;;;;;;;7.82;100.00;100900.28;5099623;29;20397;-74
2023/12/19 09:49:04;;;;;;;7.72;4.28;;;;;;;7.79;100.00;100892.56;5102291;29;20027;-74
2023/12/19 09:51:39;;;;;;;9.40;4.68;;;;;;;7.83;100.00;100881.19;5104859;29;20412;-74
2023/12/19 09:54:10;;;;;;;11.00;4.93;;;;;;;7.84;100.00;100871.66;5102351;29;20127;-74
2023/12/19 09:56:40;;;;;;;7.35;4.20;;;;;;;7.78;100.00;100871.75;5111801;28;20074;-74
2023/12/19 09:59:14;;;;;;;7.05;3.92;;;;;;;7.83;100.00;100872.50;5105664;29;20036;-74
2023/12/19 10:01:48;;;;;;;7.55;4.45;;;;;;;7.86;100.00;100868.13;5107080;29;20046;-74
2023/12/19 10:04:18;;;;;;;6.43;3.90;;;;;;;7.92;100.00;100856.72;5109451;29;20039;-74
2023/12/19 10:06:58;;;;;;;9.27;4.63;;;;;;;7.87;100.00;100863.78;5103243;28;20031;-74
2023/12/19 10:09:29;;;;;;;7.50;3.97;;;;;;;7.87;100.00;100858.56;5103104;29;20075;-74
2023/12/19 10:12:07;;;;;;;7.88;4.30;;;;;;;7.94;100.00;100844.53;5104316;29;20059;-74
2023/12/19 10:14:37;;;;;;;5.80;3.60;;;;;;;8.07;100.00;100836.44;5108159;29;20061;-74
2023/12/19 10:17:14;;;;;;;6.43;3.60;;;;;;;7.99;100.00;100838.34;5103844;29;20495;-73
2023/12/19 10:19:45;;;;;;;7.63;4.60;;;;;;;8.01;100.00;100836.56;5107222;29;20035;-74
2023/12/19 10:22:19;;;;;;;8.30;3.90;;;;;;;7.91;100.00;100835.03;5100544;29;20098;-75
2023/12/19 10:24:59;;;;;;;7.47;3.57;;;;;;;7.89;100.00;100826.41;5105396;28;20444;-74
2023/12/19 10:27:29;;;;;;;6.88;3.60;;;;;;;8.01;100.00;100823.56;5103661;29;20520;-74
2023/12/19 10:30:16;;;;;;;7.05;3.80;;;;;;;7.98;100.00;100809.75;5103018;28;20035;-75
2023/12/19 10:32:46;;;;;;;6.70;3.58;;;;;;;7.98;100.00;100805.41;5098981;29;20037;-74
2023/12/19 10:35:17;;;;;;;7.70;3.60;;;;;;;8.00;100.00;100797.56;5102817;29;20277;-74
2023/12/19 10:37:47;;;;;;;8.27;3.92;;;;;;;7.79;100.00;100796.28;5103877;29;20024;-74
2023/12/19 10:40:19;;;;;;;7.60;3.58;;;;;;;7.94;100.00;100779.50;5106764;28;20532;-74
2023/12/19 10:42:56;;;;;;;5.82;3.30;;;;;;;7.92;100.00;100773.47;5103173;28;20509;-74
2023/12/19 10:45:27;;;;;;;8.15;3.88;;;;;;;7.85;100.00;100767.53;5103860;28;20067;-74
2023/12/19 10:47:57;;;;;;;6.43;3.65;;;;;;;7.85;100.00;100766.69;5100657;29;20188;-74
2023/12/19 10:50:28;;;;;;;6.60;3.83;;;;;;;7.90;100.00;100765.69;5101672;29;20507;-74
2023/12/19 10:53:02;;;;;;;6.63;3.40;;;;;;;7.85;100.00;100758.88;5110276;29;20035;-74
2023/12/19 10:55:40;;;;;;;5.68;3.03;;;;;;;7.78;100.00;100750.34;5104592;29;20050;-75
2023/12/19 10:58:18;;;;;;;7.68;3.50;;;;;;;7.88;100.00;100746.66;5103764;29;20380;-74
2023/12/19 11:00:51;;;;;;;6.05;3.35;;;;;;;7.87;100.00;100741.50;5106664;28;20097;-74
2023/12/19 11:03:33;;;;;;;5.82;3.38;;;;;;;7.93;100.00;100739.63;5102328;29;20511;-75
2023/12/19 11:06:07;;;;;;;6.05;3.88;;;;;;;7.89;100.00;100743.16;5103651;29;20028;-74
2023/12/19 11:08:40;;;;;;;8.98;2.92;;;;;;;7.85;100.00;100735.47;5101921;28;20082;-74
2023/12/19 11:11:15;;;;;;;7.55;3.53;;;;;;;7.94;100.00;100736.13;5097893;29;20541;-74
2023/12/19 11:13:47;;;;;;;7.63;3.33;;;;;;;7.95;100.00;100727.44;5093263;29;20034;-74
2023/12/19 11:16:25;;;;;;;5.85;3.38;;;;;;;7.96;100.00;100729.13;5105070;28;20370;-74
2023/12/19 11:19:08;;;;;;;4.90;2.60;;;;;;;7.87;100.00;100728.50;5107112;29;20040;-74
2023/12/19 11:21:53;;;;;;;6.45;3.30;;;;;;;7.86;100.00;100722.41;5106656;29;20039;-74
2023/12/19 11:24:30;;;;;;;7.43;3.70;;;;;;;7.71;100.00;100727.94;5102807;29;20036;-74
2023/12/19 11:27:09;;;;;;;6.10;3.33;;;;;;;7.71;100.00;100717.53;5107854;29;20035;-74
2023/12/19 11:29:56;;;;;;;8.18;3.38;;;;;;;7.83;100.00;100717.28;5100641;29;20087;-74
2023/12/19 11:32:26;;;;;;;6.57;3.42;;;;;;;7.71;100.00;100704.53;5104573;29;20028;-74
2023/12/19 11:35:05;;;;;;;10.03;3.50;;;;;;;7.72;100.00;100708.84;5105592;28;20319;-74
2023/12/19 11:37:36;;;;;;;7.07;3.30;;;;;;;7.66;100.00;100709.00;5107590;29;20281;-75
2023/12/19 11:40:10;;;;;;;6.63;3.10;;;;;;;7.77;100.00;100703.56;5102391;28;20034;-75